sensor_id;sensor_type;location;lat;lon;timestamp;pressure;altitude;pressure_sealevel;temperature;humidity
53689;BME280;39583;54.682;30.662;2022-12-29T09:50:03;99236.19;;;1.71;100.00
53689;BME280;39583;54.682;30.662;2022-12-29T09:52:34;99223.03;;;1.86;100.00
53689;BME280;39583;54.682;30.662;2022-12-29T09:55:10;99221.69;;;1.98;100.00
53689;BME280;39583;54.682;30.662;2022-12-29T09:58:02;99209.69;;;2.10;100.00
53689;BME280;39583;54.682;30.662;2022-12-29T10:00:39;99220.28;;;2.18;100.00
53689;BME280;39583;54.682;30.662;2022-12-29T10:03:17;99218.94;;;2.22;100.00
53689;BME280;39583;54.682;30.662;2022-12-29T10:05:58;99211.13;;;2.21;100.00
53689;BME280;39583;54.682;30.662;2022-12-29T10:08:51;99219.25;;;2.19;100.00
53689;BME280;39583;54.682;30.662;2022-12-29T10:16:57;99211.94;;;2.21;100.00
53689;BME280;39583;54.682;30.662;2022-12-29T10:20:00;99210.16;;;2.22;100.00
53689;BME280;39583;54.682;30.662;2022-12-29T10:25:19;99208.78;;;2.26;100.00
53689;BME280;39583;54.682;30.662;2022-12-29T10:27:48;99210.44;;;2.27;100.00
53689;BME280;39583;54.682;30.662;2022-12-29T10:30:15;99205.59;;;2.30;100.00
53689;BME280;39583;54.682;30.662;2022-12-29T10:32:55;99208.44;;;2.29;100.00
53689;BME280;39583;54.682;30.662;2022-12-29T10:35:31;99200.81;;;2.26;100.00
53689;BME280;39583;54.682;30.662;2022-12-29T10:38:03;99200.81;;;2.26;100.00
53689;BME280;39583;54.682;30.662;2022-12-29T10:43:30;99201.00;;;2.24;100.00
53689;BME280;39583;54.682;30.662;2022-12-29T10:46:16;99202.66;;;2.25;100.00
53689;BME280;39583;54.682;30.662;2022-12-29T10:48:44;99194.88;;;2.24;100.00
53689;BME280;39583;54.682;30.662;2022-12-29T10:51:22;99195.34;;;2.27;100.00
53689;BME280;39583;54.682;30.662;2022-12-29T10:56:44;99199.66;;;2.28;100.00
53689;BME280;39583;54.682;30.662;2022-12-29T10:59:35;99191.03;;;2.26;100.00
53689;BME280;39583;54.682;30.662;2022-12-29T11:04:33;99197.00;;;2.28;100.00
53689;BME280;39583;54.682;30.662;2022-12-29T11:07:05;99192.03;;;2.25;100.00
53689;BME280;39583;54.682;30.662;2022-12-29T11:09:34;99180.56;;;2.25;100.00
53689;BME280;39583;54.682;30.662;2022-12-29T11:12:18;99183.88;;;2.27;100.00
53689;BME280;39583;54.682;30.662;2022-12-29T11:14:45;99179.22;;;2.29;100.00
53689;BME280;39583;54.682;30.662;2022-12-29T11:17:15;99178.91;;;2.24;100.00
53689;BME280;39583;54.682;30.662;2022-12-29T11:19:42;99182.91;;;2.20;100.00
53689;BME280;39583;54.682;30.662;2022-12-29T11:22:19;99184.09;;;2.17;100.00
53689;BME280;39583;54.682;30.662;2022-12-29T11:24:47;99175.00;;;2.12;100.00
53689;BME280;39583;54.682;30.662;2022-12-29T11:27:27;99181.25;;;2.19;100.00
53689;BME280;39583;54.682;30.662;2022-12-29T11:29:54;99178.59;;;2.19;100.00
53689;BME280;39583;54.682;30.662;2022-12-29T11:32:23;99171.63;;;2.18;100.00
53689;BME280;39583;54.682;30.662;2022-12-29T11:34:49;99174.81;;;2.13;100.00
53689;BME280;39583;54.682;30.662;2022-12-29T11:37:38;99170.84;;;2.09;100.00
53689;BME280;39583;54.682;30.662;2022-12-29T11:40:06;99167.53;;;2.07;100.00
53689;BME280;39583;54.682;30.662;2022-12-29T11:42:47;99172.19;;;2.05;100.00
53689;BME280;39583;54.682;30.662;2022-12-29T11:45:22;99183.81;;;2.04;100.00
53689;BME280;39583;54.682;30.662;2022-12-29T11:47:55;99185.16;;;2.00;100.00
53689;BME280;39583;54.682;30.662;2022-12-29T11:50:33;99183.50;;;1.99;100.00
53689;BME280;39583;54.682;30.662;2022-12-29T11:53:23;99137.97;;;1.71;100.00
53689;BME280;39583;54.682;30.662;2022-12-29T11:55:55;99181.19;;;1.96;100.00
53689;BME280;39583;54.682;30.662;2022-12-29T11:58:29;99178.88;;;1.93;100.00
53689;BME280;39583;54.682;30.662;2022-12-29T12:01:23;99188.84;;;1.91;100.00
53689;BME280;39583;54.682;30.662;2022-12-29T12:04:03;99187.19;;;1.90;100.00
53689;BME280;39583;54.682;30.662;2022-12-29T12:06:32;99185.34;;;1.90;100.00
53689;BME280;39583;54.682;30.662;2022-12-29T12:09:05;99186.00;;;1.92;100.00
53689;BME280;39583;54.682;30.662;2022-12-29T12:11:37;99187.34;;;1.96;100.00
53689;BME280;39583;54.682;30.662;2022-12-29T12:14:23;99186.50;;;1.96;100.00
53689;BME280;39583;54.682;30.662;2022-12-29T12:23:16;99191.00;;;1.95;100.00
53689;BME280;39583;54.682;30.662;2022-12-29T12:28:55;99191.31;;;1.92;100.00
53689;BME280;39583;54.682;30.662;2022-12-29T12:34:13;99191.84;;;1.88;100.00
53689;BME280;39583;54.682;30.662;2022-12-29T12:42:26;99179.91;;;1.84;100.00
53689;BME280;39583;54.682;30.662;2022-12-29T12:48:09;99188.34;;;1.87;100.00
53689;BME280;39583;54.682;30.662;2022-12-29T12:53:41;99188.34;;;1.87;100.00
53689;BME280;39583;54.682;30.662;2022-12-29T12:58:54;99186.53;;;1.88;100.00
53689;BME280;39583;54.682;30.662;2022-12-29T13:04:29;99185.88;;;1.86;100.00
53689;BME280;39583;54.682;30.662;2022-12-29T13:12:52;99177.91;;;1.86;100.00
53689;BME280;39583;54.682;30.662;2022-12-29T13:15:44;99170.13;;;1.84;100.00
53689;BME280;39583;54.682;30.662;2022-12-29T13:21:02;99171.97;;;1.75;100.00
53689;BME280;39583;54.682;30.662;2022-12-29T13:26:17;99166.53;;;1.61;99.96
53689;BME280;39583;54.682;30.662;2022-12-29T13:34:29;99170.38;;;1.42;99.61
53689;BME280;39583;54.682;30.662;2022-12-29T13:37:08;99165.22;;;1.40;99.85
53689;BME280;39583;54.682;30.662;2022-12-29T13:39:39;99166.22;;;1.39;99.76
53689;BME280;39583;54.682;30.662;2022-12-29T13:42:07;99170.38;;;1.42;100.00
53689;BME280;39583;54.682;30.662;2022-12-29T13:44:39;99172.88;;;1.43;100.00
53689;BME280;39583;54.682;30.662;2022-12-29T13:47:17;99174.66;;;1.43;100.00
53689;BME280;39583;54.682;30.662;2022-12-29T13:49:48;99177.66;;;1.48;100.00
53689;BME280;39583;54.682;30.662;2022-12-29T13:52:27;99175.66;;;1.50;100.00
53689;BME280;39583;54.682;30.662;2022-12-29T14:00:26;99168.06;;;1.47;100.00
53689;BME280;39583;54.682;30.662;2022-12-29T14:06:42;99173.53;;;1.45;100.00
53689;BME280;39583;54.682;30.662;2022-12-29T14:11:32;99169.06;;;1.46;100.00
53689;BME280;39583;54.682;30.662;2022-12-29T14:14:16;99168.06;;;1.47;100.00
53689;BME280;39583;54.682;30.662;2022-12-29T14:16:45;99174.38;;;1.46;100.00
53689;BME280;39583;54.682;30.662;2022-12-29T14:19:21;99178.00;;;1.45;100.00
53689;BME280;39583;54.682;30.662;2022-12-29T14:21:52;99176.84;;;1.47;100.00
53689;BME280;39583;54.682;30.662;2022-12-29T14:38:17;99175.50;;;1.52;100.00
53689;BME280;39583;54.682;30.662;2022-12-29T14:40:45;99163.56;;;1.47;100.00
53689;BME280;39583;54.682;30.662;2022-12-29T14:43:18;99173.84;;;1.51;100.00
53689;BME280;39583;54.682;30.662;2022-12-29T14:45:53;99176.50;;;1.51;100.00
53689;BME280;39583;54.682;30.662;2022-12-29T14:50:58;99157.44;;;1.47;100.00
53689;BME280;39583;54.682;30.662;2022-12-29T14:53:44;99155.63;;;1.47;100.00
53689;BME280;39583;54.682;30.662;2022-12-29T14:56:13;99152.31;;;1.45;100.00
53689;BME280;39583;54.682;30.662;2022-12-29T14:58:59;99148.84;;;1.45;100.00
53689;BME280;39583;54.682;30.662;2022-12-29T15:04:05;99153.13;;;1.46;100.00
53689;BME280;39583;54.682;30.662;2022-12-29T15:06:38;99153.13;;;1.46;100.00
53689;BME280;39583;54.682;30.662;2022-12-29T15:11:53;99143.19;;;1.48;100.00
53689;BME280;39583;54.682;30.662;2022-12-29T15:14:47;99140.88;;;1.45;100.00
53689;BME280;39583;54.682;30.662;2022-12-29T15:17:29;99130.09;;;1.46;100.00
53689;BME280;39583;54.682;30.662;2022-12-29T15:19:58;99136.88;;;1.49;100.00
53689;BME280;39583;54.682;30.662;2022-12-29T15:22:25;99138.53;;;1.50;100.00
53689;BME280;39583;54.682;30.662;2022-12-29T15:24:53;99135.22;;;1.48;100.00
53689;BME280;39583;54.682;30.662;2022-12-29T15:27:23;99150.63;;;1.53;100.00
53689;BME280;39583;54.682;30.662;2022-12-29T15:30:00;99141.84;;;1.52;100.00
53689;BME280;39583;54.682;30.662;2022-12-29T15:32:40;99131.09;;;1.45;100.00
53689;BME280;39583;54.682;30.662;2022-12-29T15:37:47;99140.53;;;1.48;100.00
53689;BME280;39583;54.682;30.662;2022-12-29T15:40:32;99136.22;;;1.47;100.00
53689;BME280;39583;54.682;30.662;2022-12-29T15:45:36;99144.19;;;1.47;100.00
53689;BME280;39583;54.682;30.662;2022-12-29T15:48:04;99145.84;;;1.48;100.00
53689;BME280;39583;54.682;30.662;2022-12-29T15:50:34;99142.00;;;1.51;100.00
53689;BME280;39583;54.682;30.662;2022-12-29T15:53:01;99142.84;;;1.51;100.00
53689;BME280;39583;54.682;30.662;2022-12-29T15:55:34;99141.84;;;1.52;100.00
53689;BME280;39583;54.682;30.662;2022-12-29T15:58:04;99131.88;;;1.54;100.00
53689;BME280;39583;54.682;30.662;2022-12-29T16:00:33;99131.56;;;1.57;100.00
53689;BME280;39583;54.682;30.662;2022-12-29T16:03:02;99135.34;;;1.55;100.00
53689;BME280;39583;54.682;30.662;2022-12-29T16:05:37;99135.03;;;1.58;100.00
53689;BME280;39583;54.682;30.662;2022-12-29T16:08:23;99139.53;;;1.57;100.00
53689;BME280;39583;54.682;30.662;2022-12-29T16:10:53;99133.22;;;1.58;100.00
53689;BME280;39583;54.682;30.662;2022-12-29T16:13:31;99142.00;;;1.59;100.00
53689;BME280;39583;54.682;30.662;2022-12-29T16:16:10;99140.00;;;1.61;100.00
53689;BME280;39583;54.682;30.662;2022-12-29T16:18:38;99138.34;;;1.60;100.00
53689;BME280;39583;54.682;30.662;2022-12-29T16:21:13;99138.34;;;1.60;100.00
53689;BME280;39583;54.682;30.662;2022-12-29T16:23:46;99137.69;;;1.58;100.00
53689;BME280;39583;54.682;30.662;2022-12-29T16:26:19;99136.88;;;1.57;100.00
53689;BME280;39583;54.682;30.662;2022-12-29T16:28:48;99148.44;;;1.56;100.00
53689;BME280;39583;54.682;30.662;2022-12-29T16:31:24;99138.00;;;1.55;100.00
53689;BME280;39583;54.682;30.662;2022-12-29T16:33:54;99138.00;;;1.55;100.00
53689;BME280;39583;54.682;30.662;2022-12-29T16:36:33;99138.69;;;1.57;100.00
53689;BME280;39583;54.682;30.662;2022-12-29T16:41:38;99131.38;;;1.59;100.00
53689;BME280;39583;54.682;30.662;2022-12-29T16:44:25;99134.03;;;1.59;100.00
53689;BME280;39583;54.682;30.662;2022-12-29T16:49:39;99124.06;;;1.61;100.00
53689;BME280;39583;54.682;30.662;2022-12-29T16:52:29;99129.22;;;1.62;100.00
53689;BME280;39583;54.682;30.662;2022-12-29T16:54:59;99125.19;;;1.66;100.00
53689;BME280;39583;54.682;30.662;2022-12-29T16:57:32;99126.03;;;1.67;100.00
53689;BME280;39583;54.682;30.662;2022-12-29T17:00:07;99124.88;;;1.69;100.00
53689;BME280;39583;54.682;30.662;2022-12-29T17:02:34;99120.22;;;1.71;100.00
53689;BME280;39583;54.682;30.662;2022-12-29T17:05:15;99117.41;;;1.73;100.00
53689;BME280;39583;54.682;30.662;2022-12-29T17:07:42;99115.75;;;1.72;100.00
53689;BME280;39583;54.682;30.662;2022-12-29T17:10:08;99105.13;;;1.72;100.00
53689;BME280;39583;54.682;30.662;2022-12-29T17:12:36;99101.66;;;1.71;100.00
53689;BME280;39583;54.682;30.662;2022-12-29T17:15:09;99103.94;;;1.74;100.00
53689;BME280;39583;54.682;30.662;2022-12-29T17:17:41;99098.66;;;1.74;100.00
53689;BME280;39583;54.682;30.662;2022-12-29T17:20:25;99097.63;;;1.75;100.00
53689;BME280;39583;54.682;30.662;2022-12-29T17:22:52;99099.28;;;1.76;100.00
53689;BME280;39583;54.682;30.662;2022-12-29T17:25:35;99093.34;;;1.74;100.00
53689;BME280;39583;54.682;30.662;2022-12-29T17:28:13;99096.00;;;1.74;100.00
53689;BME280;39583;54.682;30.662;2022-12-29T17:30:46;99087.84;;;1.76;100.00
53689;BME280;39583;54.682;30.662;2022-12-29T17:33:14;99090.50;;;1.76;100.00
53689;BME280;39583;54.682;30.662;2022-12-29T17:35:41;99092.34;;;1.75;100.00
53689;BME280;39583;54.682;30.662;2022-12-29T17:38:28;99085.19;;;1.76;100.00
53689;BME280;39583;54.682;30.662;2022-12-29T17:40:56;99082.06;;;1.72;100.00
53689;BME280;39583;54.682;30.662;2022-12-29T17:43:23;99089.53;;;1.69;100.00
53689;BME280;39583;54.682;30.662;2022-12-29T17:45:53;99083.25;;;1.70;100.00
53689;BME280;39583;54.682;30.662;2022-12-29T17:48:20;99097.66;;;1.67;100.00
53689;BME280;39583;54.682;30.662;2022-12-29T17:50:49;99079.63;;;1.63;100.00
53689;BME280;39583;54.682;30.662;2022-12-29T17:53:24;99088.06;;;1.66;100.00
53689;BME280;39583;54.682;30.662;2022-12-29T17:55:52;99092.34;;;1.67;100.00
53689;BME280;39583;54.682;30.662;2022-12-29T17:58:28;99090.06;;;1.64;100.00
53689;BME280;39583;54.682;30.662;2022-12-29T18:00:57;99087.56;;;1.63;100.00
53689;BME280;39583;54.682;30.662;2022-12-29T18:03:31;99079.63;;;1.63;100.00
53689;BME280;39583;54.682;30.662;2022-12-29T18:05:58;99077.13;;;1.61;100.00
53689;BME280;39583;54.682;30.662;2022-12-29T18:08:24;99073.47;;;1.62;100.00
53689;BME280;39583;54.682;30.662;2022-12-29T18:10:54;99073.59;;;1.69;100.00
53689;BME280;39583;54.682;30.662;2022-12-29T18:13:22;99072.78;;;1.68;100.00
53689;BME280;39583;54.682;30.662;2022-12-29T18:15:51;99070.13;;;1.68;100.00
53689;BME280;39583;54.682;30.662;2022-12-29T18:18:23;99083.72;;;1.73;100.00
53689;BME280;39583;54.682;30.662;2022-12-29T18:20:53;99082.72;;;1.74;100.00
53689;BME280;39583;54.682;30.662;2022-12-29T18:23:30;99081.06;;;1.73;100.00
53689;BME280;39583;54.682;30.662;2022-12-29T18:26:09;99079.06;;;1.75;100.00
53689;BME280;39583;54.682;30.662;2022-12-29T18:28:37;99080.88;;;1.75;100.00
53689;BME280;39583;54.682;30.662;2022-12-29T18:31:18;99077.88;;;1.78;100.00
53689;BME280;39583;54.682;30.662;2022-12-29T18:33:46;99074.75;;;1.74;100.00
53689;BME280;39583;54.682;30.662;2022-12-29T18:36:14;99056.53;;;1.71;100.00
53689;BME280;39583;54.682;30.662;2022-12-29T18:38:41;99062.66;;;1.72;100.00
53689;BME280;39583;54.682;30.662;2022-12-29T18:43:46;99074.09;;;1.72;100.00
53689;BME280;39583;54.682;30.662;2022-12-29T18:46:13;99049.13;;;1.59;100.00
53689;BME280;39583;54.682;30.662;2022-12-29T18:48:39;99067.47;;;1.68;100.00
53689;BME280;39583;54.682;30.662;2022-12-29T18:51:06;99071.81;;;1.69;100.00
53689;BME280;39583;54.682;30.662;2022-12-29T18:53:39;99077.94;;;1.70;100.00
53689;BME280;39583;54.682;30.662;2022-12-29T18:56:05;99077.94;;;1.70;100.00
53689;BME280;39583;54.682;30.662;2022-12-29T18:58:34;99082.41;;;1.69;100.00
53689;BME280;39583;54.682;30.662;2022-12-29T19:01:00;99080.75;;;1.68;100.00
53689;BME280;39583;54.682;30.662;2022-12-29T19:03:27;99065.88;;;1.59;100.00
53689;BME280;39583;54.682;30.662;2022-12-29T19:05:53;99064.50;;;1.63;100.00
53689;BME280;39583;54.682;30.662;2022-12-29T19:08:19;99075.13;;;1.63;100.00
